sensor_id;sensor_type;location;lat;lon;timestamp;pressure;altitude;pressure_sealevel;temperature;humidity
15694;BME280;7947;48.834;9.132;2023-07-28T00:00:39;97467.63;;;17.54;97.46
15694;BME280;7947;48.834;9.132;2023-07-28T00:03:43;97476.91;;;17.53;97.77
15694;BME280;7947;48.834;9.132;2023-07-28T00:06:46;97482.50;;;17.48;97.76
15694;BME280;7947;48.834;9.132;2023-07-28T00:09:49;97483.16;;;17.45;97.38
15694;BME280;7947;48.834;9.132;2023-07-28T00:12:52;97478.63;;;17.37;97.13
15694;BME280;7947;48.834;9.132;2023-07-28T00:15:55;97473.41;;;17.32;97.81
15694;BME280;7947;48.834;9.132;2023-07-28T00:18:59;97471.81;;;17.31;97.91
15694;BME280;7947;48.834;9.132;2023-07-28T00:22:02;97466.09;;;17.32;98.49
15694;BME280;7947;48.834;9.132;2023-07-28T00:25:05;97466.41;;;17.31;98.49
15694;BME280;7947;48.834;9.132;2023-07-28T00:28:08;97457.16;;;17.32;98.50
15694;BME280;7947;48.834;9.132;2023-07-28T00:31:12;97464.81;;;17.30;98.01
15694;BME280;7947;48.834;9.132;2023-07-28T00:34:16;97463.38;;;17.32;98.87
15694;BME280;7947;48.834;9.132;2023-07-28T00:37:19;97459.88;;;17.32;98.92
15694;BME280;7947;48.834;9.132;2023-07-28T00:40:22;97458.59;;;17.29;98.97
15694;BME280;7947;48.834;9.132;2023-07-28T00:43:25;97452.06;;;17.30;98.97
15694;BME280;7947;48.834;9.132;2023-07-28T00:46:28;97456.69;;;17.30;98.95
15694;BME280;7947;48.834;9.132;2023-07-28T00:49:33;97451.63;;;17.28;98.82
15694;BME280;7947;48.834;9.132;2023-07-28T00:52:36;97443.78;;;17.27;98.49
15694;BME280;7947;48.834;9.132;2023-07-28T00:55:40;97452.84;;;17.31;98.75
15694;BME280;7947;48.834;9.132;2023-07-28T00:58:43;97455.25;;;17.32;98.62
15694;BME280;7947;48.834;9.132;2023-07-28T01:01:46;97451.72;;;17.32;98.65
15694;BME280;7947;48.834;9.132;2023-07-28T01:04:51;97452.06;;;17.30;98.55
15694;BME280;7947;48.834;9.132;2023-07-28T01:08:00;97450.59;;;17.33;98.34
15694;BME280;7947;48.834;9.132;2023-07-28T01:11:05;97457.34;;;17.27;98.49
15694;BME280;7947;48.834;9.132;2023-07-28T01:14:08;97452.25;;;17.25;98.11
15694;BME280;7947;48.834;9.132;2023-07-28T01:17:11;97454.84;;;17.22;97.89
15694;BME280;7947;48.834;9.132;2023-07-28T01:20:16;97447.72;;;17.17;97.30
15694;BME280;7947;48.834;9.132;2023-07-28T01:23:20;97432.47;;;17.12;96.79
15694;BME280;7947;48.834;9.132;2023-07-28T01:26:31;97444.31;;;17.08;97.02
15694;BME280;7947;48.834;9.132;2023-07-28T01:29:35;97441.94;;;17.06;96.80
15694;BME280;7947;48.834;9.132;2023-07-28T01:32:38;97446.78;;;17.01;97.28
15694;BME280;7947;48.834;9.132;2023-07-28T01:35:41;97441.34;;;17.01;97.62
15694;BME280;7947;48.834;9.132;2023-07-28T01:38:44;97443.94;;;16.97;97.60
15694;BME280;7947;48.834;9.132;2023-07-28T01:41:48;97439.16;;;16.94;97.57
15694;BME280;7947;48.834;9.132;2023-07-28T01:44:51;97444.47;;;16.91;96.75
15694;BME280;7947;48.834;9.132;2023-07-28T01:47:54;97443.19;;;16.88;96.56
15694;BME280;7947;48.834;9.132;2023-07-28T01:50:57;97437.88;;;16.80;96.39
15694;BME280;7947;48.834;9.132;2023-07-28T01:54:00;97440.59;;;16.80;97.29
15694;BME280;7947;48.834;9.132;2023-07-28T01:57:05;97437.06;;;16.79;97.42
15694;BME280;7947;48.834;9.132;2023-07-28T02:00:08;97435.16;;;16.80;98.15
15694;BME280;7947;48.834;9.132;2023-07-28T02:03:11;97424.81;;;16.82;98.26
15694;BME280;7947;48.834;9.132;2023-07-28T02:06:14;97427.03;;;16.80;98.82
15694;BME280;7947;48.834;9.132;2023-07-28T02:09:17;97425.31;;;16.75;98.68
15694;BME280;7947;48.834;9.132;2023-07-28T02:12:21;97427.22;;;16.75;98.95
15694;BME280;7947;48.834;9.132;2023-07-28T02:15:24;97435.94;;;16.80;98.90
15694;BME280;7947;48.834;9.132;2023-07-28T02:18:27;97441.34;;;16.80;99.10
15694;BME280;7947;48.834;9.132;2023-07-28T02:21:30;97437.41;;;16.78;98.56
15694;BME280;7947;48.834;9.132;2023-07-28T02:24:33;97430.41;;;16.77;98.88
15694;BME280;7947;48.834;9.132;2023-07-28T02:27:38;97433.91;;;16.77;98.96
15694;BME280;7947;48.834;9.132;2023-07-28T02:30:41;97435.16;;;16.80;98.73
15694;BME280;7947;48.834;9.132;2023-07-28T02:33:44;97441.81;;;16.82;99.14
15694;BME280;7947;48.834;9.132;2023-07-28T02:36:47;97441.50;;;16.84;98.96
15694;BME280;7947;48.834;9.132;2023-07-28T02:39:50;97448.50;;;16.85;98.82
15694;BME280;7947;48.834;9.132;2023-07-28T02:42:54;97443.09;;;16.85;99.26
15694;BME280;7947;48.834;9.132;2023-07-28T02:46:00;97456.41;;;16.90;99.25
15694;BME280;7947;48.834;9.132;2023-07-28T02:49:03;97453.69;;;16.90;99.55
15694;BME280;7947;48.834;9.132;2023-07-28T02:52:07;97463.75;;;16.89;99.89
15694;BME280;7947;48.834;9.132;2023-07-28T02:55:10;97469.94;;;16.90;100.00
15694;BME280;7947;48.834;9.132;2023-07-28T02:58:14;97470.09;;;16.93;100.00
15694;BME280;7947;48.834;9.132;2023-07-28T03:01:18;97471.34;;;16.96;100.00
15694;BME280;7947;48.834;9.132;2023-07-28T03:04:20;97472.59;;;16.98;100.00
15694;BME280;7947;48.834;9.132;2023-07-28T03:07:23;97483.91;;;17.00;100.00
15694;BME280;7947;48.834;9.132;2023-07-28T03:10:26;97486.72;;;17.04;99.96
15694;BME280;7947;48.834;9.132;2023-07-28T03:13:30;97487.88;;;17.03;100.00
15694;BME280;7947;48.834;9.132;2023-07-28T03:16:34;97488.34;;;17.05;99.97
15694;BME280;7947;48.834;9.132;2023-07-28T03:19:37;97503.44;;;17.06;100.00
15694;BME280;7947;48.834;9.132;2023-07-28T03:22:40;97501.88;;;17.05;100.00
15694;BME280;7947;48.834;9.132;2023-07-28T03:25:43;97513.19;;;17.07;100.00
15694;BME280;7947;48.834;9.132;2023-07-28T03:28:47;97517.47;;;17.08;100.00
15694;BME280;7947;48.834;9.132;2023-07-28T03:31:50;97519.53;;;17.11;100.00
15694;BME280;7947;48.834;9.132;2023-07-28T03:34:53;97525.72;;;17.11;100.00
15694;BME280;7947;48.834;9.132;2023-07-28T03:37:56;97535.56;;;17.16;100.00
15694;BME280;7947;48.834;9.132;2023-07-28T03:40:59;97533.56;;;17.25;99.99
15694;BME280;7947;48.834;9.132;2023-07-28T03:44:03;97529.53;;;17.31;100.00
15694;BME280;7947;48.834;9.132;2023-07-28T03:47:06;97544.94;;;17.39;100.00
15694;BME280;7947;48.834;9.132;2023-07-28T03:50:09;97538.19;;;17.45;99.59
15694;BME280;7947;48.834;9.132;2023-07-28T03:53:12;97537.22;;;17.50;99.57
15694;BME280;7947;48.834;9.132;2023-07-28T03:56:15;97547.03;;;17.54;99.36
15694;BME280;7947;48.834;9.132;2023-07-28T03:59:19;97544.78;;;17.56;98.97
15694;BME280;7947;48.834;9.132;2023-07-28T04:02:22;97532.50;;;17.59;98.67
15694;BME280;7947;48.834;9.132;2023-07-28T04:05:25;97525.94;;;17.60;98.22
15694;BME280;7947;48.834;9.132;2023-07-28T04:08:28;97534.88;;;17.60;98.28
15694;BME280;7947;48.834;9.132;2023-07-28T04:11:31;97532.97;;;17.61;99.04
15694;BME280;7947;48.834;9.132;2023-07-28T04:14:35;97534.53;;;17.62;99.43
15694;BME280;7947;48.834;9.132;2023-07-28T04:17:38;97523.22;;;17.60;99.67
15694;BME280;7947;48.834;9.132;2023-07-28T04:20:41;97532.50;;;17.59;99.83
15694;BME280;7947;48.834;9.132;2023-07-28T04:23:44;97517.81;;;17.60;100.00
15694;BME280;7947;48.834;9.132;2023-07-28T04:26:47;97514.63;;;17.58;100.00
15694;BME280;7947;48.834;9.132;2023-07-28T04:29:52;97514.63;;;17.58;100.00
15694;BME280;7947;48.834;9.132;2023-07-28T04:32:55;97514.16;;;17.56;100.00
15694;BME280;7947;48.834;9.132;2023-07-28T04:35:58;97516.88;;;17.56;100.00
15694;BME280;7947;48.834;9.132;2023-07-28T04:39:01;97507.97;;;17.55;100.00
15694;BME280;7947;48.834;9.132;2023-07-28T04:42:04;97514.78;;;17.61;100.00
15694;BME280;7947;48.834;9.132;2023-07-28T04:45:09;97510.13;;;17.62;100.00
15694;BME280;7947;48.834;9.132;2023-07-28T04:48:12;97502.00;;;17.62;100.00
15694;BME280;7947;48.834;9.132;2023-07-28T04:51:15;97521.09;;;17.65;100.00
15694;BME280;7947;48.834;9.132;2023-07-28T04:54:18;97518.72;;;17.64;100.00
15694;BME280;7947;48.834;9.132;2023-07-28T04:57:21;97518.72;;;17.64;100.00
15694;BME280;7947;48.834;9.132;2023-07-28T05:00:25;97518.38;;;17.65;100.00
15694;BME280;7947;48.834;9.132;2023-07-28T05:03:28;97521.09;;;17.65;100.00
15694;BME280;7947;48.834;9.132;2023-07-28T05:06:31;97525.84;;;17.68;100.00
15694;BME280;7947;48.834;9.132;2023-07-28T05:09:33;97537.63;;;17.72;100.00
15694;BME280;7947;48.834;9.132;2023-07-28T05:12:36;97533.31;;;17.71;100.00
15694;BME280;7947;48.834;9.132;2023-07-28T05:15:40;97533.66;;;17.70;100.00
15694;BME280;7947;48.834;9.132;2023-07-28T05:18:43;97535.91;;;17.68;100.00
15694;BME280;7947;48.834;9.132;2023-07-28T05:21:48;97544.72;;;17.65;100.00
15694;BME280;7947;48.834;9.132;2023-07-28T05:24:57;97540.88;;;17.66;100.00
15694;BME280;7947;48.834;9.132;2023-07-28T05:27:59;97550.59;;;17.67;100.00
15694;BME280;7947;48.834;9.132;2023-07-28T05:31:07;97556.16;;;17.70;100.00
15694;BME280;7947;48.834;9.132;2023-07-28T05:34:10;97551.38;;;17.67;100.00
15694;BME280;7947;48.834;9.132;2023-07-28T05:37:13;97551.84;;;17.69;100.00
15694;BME280;7947;48.834;9.132;2023-07-28T05:40:16;97555.94;;;17.75;100.00
15694;BME280;7947;48.834;9.132;2023-07-28T05:43:19;97558.44;;;17.80;100.00
15694;BME280;7947;48.834;9.132;2023-07-28T05:46:23;97564.09;;;17.87;100.00
15694;BME280;7947;48.834;9.132;2023-07-28T05:49:26;97558.00;;;17.90;100.00
15694;BME280;7947;48.834;9.132;2023-07-28T05:52:29;97567.72;;;17.91;100.00
15694;BME280;7947;48.834;9.132;2023-07-28T05:55:32;97572.47;;;17.94;100.00
15694;BME280;7947;48.834;9.132;2023-07-28T05:58:35;97573.63;;;17.93;100.00
15694;BME280;7947;48.834;9.132;2023-07-28T06:01:39;97569.44;;;17.96;100.00
15694;BME280;7947;48.834;9.132;2023-07-28T06:04:42;97575.00;;;17.99;100.00
15694;BME280;7947;48.834;9.132;2023-07-28T06:07:44;97576.56;;;18.00;100.00
15694;BME280;7947;48.834;9.132;2023-07-28T06:10:47;97574.31;;;18.02;100.00
15694;BME280;7947;48.834;9.132;2023-07-28T06:13:51;97573.97;;;18.04;100.00
15694;BME280;7947;48.834;9.132;2023-07-28T06:16:55;97575.22;;;18.07;100.00
15694;BME280;7947;48.834;9.132;2023-07-28T06:19:58;97585.44;;;18.10;100.00
15694;BME280;7947;48.834;9.132;2023-07-28T06:23:01;97580.13;;;18.13;100.00
15694;BME280;7947;48.834;9.132;2023-07-28T06:26:04;97581.34;;;18.16;100.00
15694;BME280;7947;48.834;9.132;2023-07-28T06:29:07;97580.69;;;18.19;100.00
15694;BME280;7947;48.834;9.132;2023-07-28T06:32:11;97588.13;;;18.22;100.00
15694;BME280;7947;48.834;9.132;2023-07-28T06:35:14;97597.19;;;18.26;100.00
15694;BME280;7947;48.834;9.132;2023-07-28T06:38:17;97608.50;;;18.28;100.00
15694;BME280;7947;48.834;9.132;2023-07-28T06:41:20;97594.59;;;18.29;100.00
15694;BME280;7947;48.834;9.132;2023-07-28T06:44:23;97606.25;;;18.30;100.00
15694;BME280;7947;48.834;9.132;2023-07-28T06:47:27;97595.84;;;18.32;100.00
15694;BME280;7947;48.834;9.132;2023-07-28T06:50:30;97589.41;;;18.36;100.00
15694;BME280;7947;48.834;9.132;2023-07-28T06:53:33;97601.97;;;18.41;100.00
15694;BME280;7947;48.834;9.132;2023-07-28T06:56:36;97599.41;;;18.44;100.00
15694;BME280;7947;48.834;9.132;2023-07-28T06:59:39;97597.28;;;18.50;100.00
15694;BME280;7947;48.834;9.132;2023-07-28T07:02:44;97602.00;;;18.53;100.00
15694;BME280;7947;48.834;9.132;2023-07-28T07:05:47;97605.63;;;18.57;100.00
15694;BME280;7947;48.834;9.132;2023-07-28T07:08:50;97603.47;;;18.62;100.00
15694;BME280;7947;48.834;9.132;2023-07-28T07:11:52;97610.63;;;18.67;100.00
15694;BME280;7947;48.834;9.132;2023-07-28T07:14:55;97615.81;;;18.72;100.00
15694;BME280;7947;48.834;9.132;2023-07-28T07:17:59;97612.09;;;18.76;100.00
15694;BME280;7947;48.834;9.132;2023-07-28T07:21:02;97623.88;;;18.80;100.00
15694;BME280;7947;48.834;9.132;2023-07-28T07:24:07;97616.97;;;18.83;100.00
15694;BME280;7947;48.834;9.132;2023-07-28T07:27:11;97621.72;;;18.86;100.00
15694;BME280;7947;48.834;9.132;2023-07-28T07:30:14;97617.19;;;18.90;100.00
15694;BME280;7947;48.834;9.132;2023-07-28T07:33:18;97623.19;;;18.96;100.00
15694;BME280;7947;48.834;9.132;2023-07-28T07:36:21;97624.63;;;19.05;100.00
15694;BME280;7947;48.834;9.132;2023-07-28T07:39:24;97625.06;;;19.19;100.00
15694;BME280;7947;48.834;9.132;2023-07-28T07:42:28;97631.97;;;19.29;100.00
15694;BME280;7947;48.834;9.132;2023-07-28T07:45:32;97626.97;;;19.31;100.00
15694;BME280;7947;48.834;9.132;2023-07-28T07:48:36;97631.16;;;19.28;100.00
15694;BME280;7947;48.834;9.132;2023-07-28T07:51:39;97633.22;;;19.31;100.00
15694;BME280;7947;48.834;9.132;2023-07-28T07:54:42;97635.28;;;19.34;100.00
15694;BME280;7947;48.834;9.132;2023-07-28T07:57:45;97636.63;;;19.40;100.00
15694;BME280;7947;48.834;9.132;2023-07-28T08:00:48;97637.97;;;19.46;100.00
15694;BME280;7947;48.834;9.132;2023-07-28T08:03:52;97641.25;;;19.52;100.00
15694;BME280;7947;48.834;9.132;2023-07-28T08:06:55;97653.81;;;19.56;100.00
15694;BME280;7947;48.834;9.132;2023-07-28T08:09:58;97655.84;;;19.59;100.00
15694;BME280;7947;48.834;9.132;2023-07-28T08:13:01;97652.75;;;19.61;100.00
15694;BME280;7947;48.834;9.132;2023-07-28T08:16:05;97655.03;;;19.59;100.00
15694;BME280;7947;48.834;9.132;2023-07-28T08:19:09;97652.31;;;19.59;100.00
15694;BME280;7947;48.834;9.132;2023-07-28T08:22:12;97661.63;;;19.58;100.00
15694;BME280;7947;48.834;9.132;2023-07-28T08:25:15;97663.09;;;19.55;100.00
15694;BME280;7947;48.834;9.132;2023-07-28T08:28:18;97664.16;;;19.51;99.92
15694;BME280;7947;48.834;9.132;2023-07-28T08:31:21;97675.34;;;19.49;99.08
15694;BME280;7947;48.834;9.132;2023-07-28T08:34:26;97679.66;;;19.50;98.53
15694;BME280;7947;48.834;9.132;2023-07-28T08:37:29;97681.25;;;19.51;99.13
15694;BME280;7947;48.834;9.132;2023-07-28T08:40:33;97677.06;;;19.54;99.73
15694;BME280;7947;48.834;9.132;2023-07-28T08:43:36;97679.41;;;19.55;100.00
15694;BME280;7947;48.834;9.132;2023-07-28T08:46:42;97692.34;;;19.58;100.00
15694;BME280;7947;48.834;9.132;2023-07-28T08:49:47;97686.56;;;19.60;100.00
15694;BME280;7947;48.834;9.132;2023-07-28T08:52:51;97694.81;;;19.63;100.00
15694;BME280;7947;48.834;9.132;2023-07-28T08:55:54;97684.75;;;19.64;100.00
15694;BME280;7947;48.834;9.132;2023-07-28T08:58:57;97701.50;;;19.66;100.00
15694;BME280;7947;48.834;9.132;2023-07-28T09:02:01;97693.00;;;19.67;100.00
15694;BME280;7947;48.834;9.132;2023-07-28T09:05:16;97695.81;;;19.71;100.00
15694;BME280;7947;48.834;9.132;2023-07-28T09:08:20;97692.88;;;19.76;100.00
15694;BME280;7947;48.834;9.132;2023-07-28T09:11:24;97691.81;;;19.80;100.00
15694;BME280;7947;48.834;9.132;2023-07-28T09:14:28;97695.00;;;19.83;99.78
15694;BME280;7947;48.834;9.132;2023-07-28T09:17:31;97687.38;;;19.88;98.99
15694;BME280;7947;48.834;9.132;2023-07-28T09:20:37;97692.25;;;19.95;98.49
15694;BME280;7947;48.834;9.132;2023-07-28T09:23:40;97692.09;;;20.03;97.99
15694;BME280;7947;48.834;9.132;2023-07-28T09:26:45;97685.94;;;20.18;97.65
15694;BME280;7947;48.834;9.132;2023-07-28T09:29:48;97698.69;;;20.30;96.79
15694;BME280;7947;48.834;9.132;2023-07-28T09:32:53;97691.06;;;20.35;96.12
15694;BME280;7947;48.834;9.132;2023-07-28T09:36:09;97696.00;;;20.45;95.26
15694;BME280;7947;48.834;9.132;2023-07-28T09:39:13;97689.94;;;20.52;95.27
15694;BME280;7947;48.834;9.132;2023-07-28T09:42:17;97683.00;;;20.54;93.95
15694;BME280;7947;48.834;9.132;2023-07-28T09:45:20;97679.78;;;20.64;92.89
15694;BME280;7947;48.834;9.132;2023-07-28T09:48:39;97678.53;;;20.62;92.69
15694;BME280;7947;48.834;9.132;2023-07-28T09:51:48;97688.53;;;20.58;92.16
15694;BME280;7947;48.834;9.132;2023-07-28T09:54:55;97683.81;;;20.55;92.12
15694;BME280;7947;48.834;9.132;2023-07-28T09:58:03;97679.50;;;20.54;92.79
15694;BME280;7947;48.834;9.132;2023-07-28T10:01:08;97682.22;;;20.54;93.94
15694;BME280;7947;48.834;9.132;2023-07-28T10:04:12;97679.16;;;20.55;94.67
15694;BME280;7947;48.834;9.132;2023-07-28T10:07:18;97686.53;;;20.55;93.81
15694;BME280;7947;48.834;9.132;2023-07-28T10:10:21;97688.00;;;20.52;93.87
15694;BME280;7947;48.834;9.132;2023-07-28T10:13:24;97682.13;;;20.50;93.28
15694;BME280;7947;48.834;9.132;2023-07-28T10:16:30;97691.63;;;20.56;92.18
15694;BME280;7947;48.834;9.132;2023-07-28T10:19:34;97695.84;;;20.54;92.64
15694;BME280;7947;48.834;9.132;2023-07-28T10:22:44;97704.38;;;20.52;93.52
15694;BME280;7947;48.834;9.132;2023-07-28T10:25:56;97702.34;;;20.49;93.79
15694;BME280;7947;48.834;9.132;2023-07-28T10:29:08;97705.41;;;20.48;93.93
15694;BME280;7947;48.834;9.132;2023-07-28T10:32:25;97705.31;;;20.44;93.90
15694;BME280;7947;48.834;9.132;2023-07-28T10:35:29;97703.75;;;20.43;94.40
15694;BME280;7947;48.834;9.132;2023-07-28T10:38:37;97708.38;;;20.43;94.94
15694;BME280;7947;48.834;9.132;2023-07-28T10:42:00;97709.88;;;20.40;94.42
15694;BME280;7947;48.834;9.132;2023-07-28T10:45:04;97713.41;;;20.41;94.29
15694;BME280;7947;48.834;9.132;2023-07-28T10:48:07;97717.28;;;20.40;94.39
15694;BME280;7947;48.834;9.132;2023-07-28T10:51:10;97712.59;;;20.40;94.07
15694;BME280;7947;48.834;9.132;2023-07-28T10:54:15;97719.81;;;20.48;94.16
15694;BME280;7947;48.834;9.132;2023-07-28T10:57:21;97714.47;;;20.52;94.59
15694;BME280;7947;48.834;9.132;2023-07-28T11:00:25;97719.75;;;20.60;94.74
15694;BME280;7947;48.834;9.132;2023-07-28T11:03:28;97712.13;;;20.66;95.38
15694;BME280;7947;48.834;9.132;2023-07-28T11:06:31;97714.47;;;20.67;94.30
15694;BME280;7947;48.834;9.132;2023-07-28T11:09:36;97712.13;;;20.82;90.92
15694;BME280;7947;48.834;9.132;2023-07-28T11:12:40;97720.69;;;20.96;87.79
15694;BME280;7947;48.834;9.132;2023-07-28T11:15:44;97721.16;;;21.13;84.82
15694;BME280;7947;48.834;9.132;2023-07-28T11:18:46;97716.00;;;21.27;85.26
15694;BME280;7947;48.834;9.132;2023-07-28T11:21:49;97714.34;;;21.38;83.75
15694;BME280;7947;48.834;9.132;2023-07-28T11:24:54;97716.25;;;21.53;83.33
15694;BME280;7947;48.834;9.132;2023-07-28T11:28:00;97710.75;;;21.69;82.33
15694;BME280;7947;48.834;9.132;2023-07-28T11:31:03;97710.00;;;21.88;82.62
15694;BME280;7947;48.834;9.132;2023-07-28T11:34:12;97710.72;;;22.04;82.25
15694;BME280;7947;48.834;9.132;2023-07-28T11:37:16;97704.69;;;22.33;80.02
15694;BME280;7947;48.834;9.132;2023-07-28T11:40:21;97707.53;;;22.59;79.05
15694;BME280;7947;48.834;9.132;2023-07-28T11:43:27;97710.84;;;22.68;75.84
15694;BME280;7947;48.834;9.132;2023-07-28T11:46:34;97708.22;;;22.75;75.26
15694;BME280;7947;48.834;9.132;2023-07-28T11:49:46;97699.16;;;22.71;76.24
15694;BME280;7947;48.834;9.132;2023-07-28T11:52:49;97705.84;;;22.74;75.84
15694;BME280;7947;48.834;9.132;2023-07-28T11:55:54;97714.06;;;22.74;76.89
15694;BME280;7947;48.834;9.132;2023-07-28T11:58:58;97706.88;;;22.66;76.50
15694;BME280;7947;48.834;9.132;2023-07-28T12:02:02;97710.13;;;22.52;75.92
15694;BME280;7947;48.834;9.132;2023-07-28T12:05:12;97712.63;;;22.41;75.61
15694;BME280;7947;48.834;9.132;2023-07-28T12:08:33;97712.88;;;22.33;79.91
15694;BME280;7947;48.834;9.132;2023-07-28T12:11:42;97714.81;;;22.13;80.74
15694;BME280;7947;48.834;9.132;2023-07-28T12:14:48;97717.63;;;21.98;82.82
15694;BME280;7947;48.834;9.132;2023-07-28T12:18:14;97731.75;;;21.84;85.07
15694;BME280;7947;48.834;9.132;2023-07-28T12:21:20;97734.94;;;21.71;86.02
15694;BME280;7947;48.834;9.132;2023-07-28T12:24:23;97731.63;;;21.62;88.26
15694;BME280;7947;48.834;9.132;2023-07-28T12:27:28;97729.09;;;21.53;87.88
15694;BME280;7947;48.834;9.132;2023-07-28T12:30:34;97736.84;;;21.51;87.88
15694;BME280;7947;48.834;9.132;2023-07-28T12:33:37;97727.78;;;21.47;88.11
15694;BME280;7947;48.834;9.132;2023-07-28T12:36:40;97727.25;;;21.41;88.92
15694;BME280;7947;48.834;9.132;2023-07-28T12:39:47;97715.53;;;21.41;90.99
15694;BME280;7947;48.834;9.132;2023-07-28T12:42:55;97709.41;;;21.44;91.85
15694;BME280;7947;48.834;9.132;2023-07-28T12:46:01;97715.38;;;21.49;91.93
15694;BME280;7947;48.834;9.132;2023-07-28T12:49:06;97707.31;;;21.56;92.02
15694;BME280;7947;48.834;9.132;2023-07-28T12:52:21;97711.44;;;21.66;90.51
15694;BME280;7947;48.834;9.132;2023-07-28T12:55:44;97709.31;;;21.75;89.57
15694;BME280;7947;48.834;9.132;2023-07-28T12:58:51;97713.38;;;21.81;89.64
15694;BME280;7947;48.834;9.132;2023-07-28T13:01:57;97714.50;;;21.80;89.12
15694;BME280;7947;48.834;9.132;2023-07-28T13:05:00;97712.59;;;21.81;88.25
15694;BME280;7947;48.834;9.132;2023-07-28T13:08:03;97717.13;;;21.77;88.36
15694;BME280;7947;48.834;9.132;2023-07-28T13:11:09;97726.06;;;21.74;87.54
15694;BME280;7947;48.834;9.132;2023-07-28T13:14:16;97721.66;;;21.69;87.55
15694;BME280;7947;48.834;9.132;2023-07-28T13:17:18;97736.38;;;21.65;88.21
15694;BME280;7947;48.834;9.132;2023-07-28T13:20:21;97731.19;;;21.60;89.00
15694;BME280;7947;48.834;9.132;2023-07-28T13:23:24;97738.75;;;21.50;89.78
15694;BME280;7947;48.834;9.132;2023-07-28T13:26:27;97741.41;;;21.47;91.38
15694;BME280;7947;48.834;9.132;2023-07-28T13:29:31;97735.00;;;21.39;92.60
15694;BME280;7947;48.834;9.132;2023-07-28T13:32:34;97734.84;;;21.32;94.14
15694;BME280;7947;48.834;9.132;2023-07-28T13:35:37;97743.63;;;21.26;94.88
15694;BME280;7947;48.834;9.132;2023-07-28T13:38:40;97736.09;;;21.19;96.19
15694;BME280;7947;48.834;9.132;2023-07-28T13:41:43;97747.25;;;21.14;97.29
15694;BME280;7947;48.834;9.132;2023-07-28T13:44:47;97747.09;;;21.07;97.43
15694;BME280;7947;48.834;9.132;2023-07-28T13:47:56;97749.59;;;21.00;98.05
15694;BME280;7947;48.834;9.132;2023-07-28T13:50:59;97761.03;;;20.90;98.41
15694;BME280;7947;48.834;9.132;2023-07-28T13:54:02;97758.38;;;20.78;98.74
15694;BME280;7947;48.834;9.132;2023-07-28T13:57:08;97773.53;;;20.63;99.01
15694;BME280;7947;48.834;9.132;2023-07-28T14:00:13;97771.34;;;20.53;99.82
15694;BME280;7947;48.834;9.132;2023-07-28T14:03:16;97776.13;;;20.44;100.00
15694;BME280;7947;48.834;9.132;2023-07-28T14:06:19;97762.69;;;20.36;100.00
15694;BME280;7947;48.834;9.132;2023-07-28T14:09:22;97730.22;;;20.31;100.00
15694;BME280;7947;48.834;9.132;2023-07-28T14:12:25;97707.91;;;20.25;100.00
15694;BME280;7947;48.834;9.132;2023-07-28T14:15:29;97685.44;;;20.28;100.00
15694;BME280;7947;48.834;9.132;2023-07-28T14:18:32;97680.13;;;20.20;100.00
15694;BME280;7947;48.834;9.132;2023-07-28T14:21:35;97715.53;;;20.20;100.00
15694;BME280;7947;48.834;9.132;2023-07-28T14:24:41;97738.91;;;20.21;100.00
15694;BME280;7947;48.834;9.132;2023-07-28T14:27:44;97764.19;;;20.21;100.00
15694;BME280;7947;48.834;9.132;2023-07-28T14:30:48;97760.25;;;20.19;100.00
15694;BME280;7947;48.834;9.132;2023-07-28T14:33:52;97742.53;;;20.13;100.00
15694;BME280;7947;48.834;9.132;2023-07-28T14:36:55;97747.28;;;20.16;100.00
15694;BME280;7947;48.834;9.132;2023-07-28T14:39:59;97747.72;;;20.18;100.00
15694;BME280;7947;48.834;9.132;2023-07-28T14:43:02;97749.47;;;20.22;100.00
15694;BME280;7947;48.834;9.132;2023-07-28T14:46:06;97744.47;;;20.24;100.00
15694;BME280;7947;48.834;9.132;2023-07-28T14:49:09;97747.28;;;20.28;100.00
15694;BME280;7947;48.834;9.132;2023-07-28T14:52:13;97752.47;;;20.33;100.00
15694;BME280;7947;48.834;9.132;2023-07-28T14:55:16;97748.97;;;20.32;100.00
15694;BME280;7947;48.834;9.132;2023-07-28T14:58:18;97744.66;;;20.31;100.00
15694;BME280;7947;48.834;9.132;2023-07-28T15:01:23;97744.56;;;20.28;100.00
15694;BME280;7947;48.834;9.132;2023-07-28T15:04:26;97745.69;;;20.27;100.00
15694;BME280;7947;48.834;9.132;2023-07-28T15:07:29;97741.03;;;20.27;100.00
15694;BME280;7947;48.834;9.132;2023-07-28T15:10:32;97719.69;;;20.29;100.00
15694;BME280;7947;48.834;9.132;2023-07-28T15:13:35;97733.84;;;20.35;100.00
15694;BME280;7947;48.834;9.132;2023-07-28T15:16:39;97748.00;;;20.40;100.00
15694;BME280;7947;48.834;9.132;2023-07-28T15:19:42;97745.72;;;20.42;100.00
15694;BME280;7947;48.834;9.132;2023-07-28T15:22:46;97751.63;;;20.44;100.00
15694;BME280;7947;48.834;9.132;2023-07-28T15:25:49;97755.16;;;20.45;100.00
15694;BME280;7947;48.834;9.132;2023-07-28T15:28:54;97754.78;;;20.46;100.00
15694;BME280;7947;48.834;9.132;2023-07-28T15:31:59;97755.16;;;20.45;100.00
15694;BME280;7947;48.834;9.132;2023-07-28T15:35:02;97750.06;;;20.43;100.00
15694;BME280;7947;48.834;9.132;2023-07-28T15:38:06;97752.69;;;20.40;100.00
15694;BME280;7947;48.834;9.132;2023-07-28T15:41:09;97754.16;;;20.37;100.00
15694;BME280;7947;48.834;9.132;2023-07-28T15:44:11;97749.06;;;20.36;100.00
15694;BME280;7947;48.834;9.132;2023-07-28T15:47:16;97750.53;;;20.33;100.00
15694;BME280;7947;48.834;9.132;2023-07-28T15:50:19;97755.53;;;20.31;100.00
15694;BME280;7947;48.834;9.132;2023-07-28T15:53:22;97760.19;;;20.31;100.00
15694;BME280;7947;48.834;9.132;2023-07-28T15:56:25;97754.28;;;20.29;100.00
15694;BME280;7947;48.834;9.132;2023-07-28T15:59:28;97757.03;;;20.29;100.00
15694;BME280;7947;48.834;9.132;2023-07-28T16:02:33;97753.84;;;20.27;100.00
15694;BME280;7947;48.834;9.132;2023-07-28T16:05:36;97755.44;;;20.28;100.00
15694;BME280;7947;48.834;9.132;2023-07-28T16:08:39;97756.69;;;20.30;100.00
15694;BME280;7947;48.834;9.132;2023-07-28T16:11:42;97757.03;;;20.29;100.00
15694;BME280;7947;48.834;9.132;2023-07-28T16:14:45;97741.84;;;20.28;100.00
15694;BME280;7947;48.834;9.132;2023-07-28T16:17:50;97746.47;;;20.27;100.00
15694;BME280;7947;48.834;9.132;2023-07-28T16:20:54;97747.72;;;20.30;100.00